createdAt,value
2022-12-06T00:00:03.117Z,59.62018
2022-12-06T00:05:04.711Z,59.85564
2022-12-06T00:10:06.334Z,60.87587
2022-12-06T00:15:07.982Z,61.64534
2022-12-06T00:20:09.597Z,62.27395
2022-12-06T00:25:11.190Z,62.2011
2022-12-06T00:30:12.928Z,61.35194
2022-12-06T00:35:14.512Z,59.99688
2022-12-06T00:40:16.112Z,59.16473
2022-12-06T00:45:17.711Z,56.49394
2022-12-06T00:50:19.320Z,60.08035
2022-12-06T00:55:20.948Z,61.27147
2022-12-06T01:00:22.560Z,59.99114
2022-12-06T01:05:24.161Z,59.386
2022-12-06T01:10:25.910Z,58.36085
2022-12-06T01:15:27.523Z,57.37743
2022-12-06T01:20:29.193Z,56.83723
2022-12-06T01:25:35.598Z,57.81418
2022-12-06T01:30:38.093Z,58.59582
2022-12-06T01:35:39.742Z,58.58078
2022-12-06T01:40:41.466Z,58.7028
2022-12-06T01:45:43.189Z,58.57209
2022-12-06T01:50:44.809Z,58.67822
2022-12-06T01:55:46.442Z,59.49615
2022-12-06T02:00:48.293Z,61.44618
2022-12-06T02:05:49.909Z,60.64829
2022-12-06T02:10:51.552Z,61.00563
2022-12-06T02:15:53.220Z,59.42895
2022-12-06T02:20:54.836Z,59.96787
2022-12-06T02:25:56.423Z,60.23061
2022-12-06T02:30:58.077Z,58.95019
2022-12-06T02:35:59.872Z,59.93934
2022-12-06T02:41:01.508Z,61.30563
2022-12-06T02:46:03.397Z,59.77288
2022-12-06T02:51:05.031Z,58.60238
2022-12-06T02:56:06.679Z,62.2032
2022-12-06T03:01:08.350Z,60.12822
2022-12-06T03:06:10.107Z,60.47975
2022-12-06T03:11:11.710Z,59.93859
2022-12-06T03:16:13.438Z,62.82073
2022-12-06T03:21:15.118Z,60.74058
2022-12-06T03:26:16.746Z,59.28043
2022-12-06T03:31:18.386Z,59.77579
2022-12-06T03:36:20.085Z,62.95275
2022-12-06T03:41:21.685Z,61.28717
2022-12-06T03:46:23.422Z,59.85404
2022-12-06T03:51:25.219Z,59.38623
2022-12-06T03:56:26.832Z,60.56984
2022-12-06T04:01:28.569Z,60.21768
2022-12-06T04:06:30.247Z,61.69549
2022-12-06T04:11:32.103Z,61.21771
2022-12-06T04:16:33.752Z,59.5512
2022-12-06T04:21:35.450Z,62.79449
2022-12-06T04:26:37.096Z,63.97667
2022-12-06T04:31:38.688Z,63.47963
2022-12-06T04:36:40.352Z,59.54601
2022-12-06T04:41:41.980Z,63.34871
2022-12-06T04:46:43.726Z,62.17107
2022-12-06T04:51:45.409Z,60.69924
2022-12-06T04:56:47.058Z,60.45804
2022-12-06T05:01:48.809Z,62.995
2022-12-06T05:06:50.400Z,59.4984
2022-12-06T05:11:52.051Z,60.24187
2022-12-06T05:16:53.905Z,60.43331
2022-12-06T05:21:55.589Z,60.1782
2022-12-06T05:26:57.171Z,60.08363
2022-12-06T05:31:58.886Z,61.77372
2022-12-06T05:37:00.621Z,63.32426
2022-12-06T05:42:02.498Z,62.56838
2022-12-06T05:47:04.116Z,62.01928
2022-12-06T05:52:05.748Z,63.7827
2022-12-06T05:57:07.380Z,65.11376
2022-12-06T06:02:09.145Z,65.24516
2022-12-06T06:07:10.968Z,65.75302
2022-12-06T06:12:13.006Z,67.82835
2022-12-06T06:17:14.704Z,68.73279
2022-12-06T06:22:16.326Z,67.22882
2022-12-06T06:27:17.982Z,66.22678
2022-12-06T06:32:19.817Z,66.82485
2022-12-06T06:37:22.652Z,66.11032
2022-12-06T06:42:24.380Z,66.02907
2022-12-06T06:47:25.979Z,65.23927
2022-12-06T06:52:27.607Z,65.48451
2022-12-06T06:57:29.230Z,65.83588
2022-12-06T07:02:30.922Z,64.92438
2022-12-06T07:07:32.683Z,65.6543
2022-12-06T07:12:34.321Z,66.4175
2022-12-06T07:17:35.927Z,66.69204
2022-12-06T07:22:37.550Z,63.53105
2022-12-06T07:27:39.138Z,64.98428
2022-12-06T07:32:40.749Z,66.15669
2022-12-06T07:37:42.380Z,66.26658
2022-12-06T07:42:44.030Z,64.67447
2022-12-06T07:47:45.664Z,64.00442
2022-12-06T07:52:47.322Z,64.98734
2022-12-06T07:57:48.906Z,65.7195
2022-12-06T08:02:50.675Z,65.40138
2022-12-06T08:07:52.374Z,65.1189
2022-12-06T08:12:54.075Z,65.18679
2022-12-06T08:17:55.718Z,64.13393
2022-12-06T08:22:57.330Z,64.44543
2022-12-06T08:27:58.913Z,66.38944
2022-12-06T08:33:00.541Z,66.15756
2022-12-06T08:38:02.143Z,65.95726
2022-12-06T08:43:03.739Z,66.54836
2022-12-06T08:48:05.384Z,65.31786
2022-12-06T08:53:07.216Z,64.05331
2022-12-06T08:58:08.913Z,64.44149
2022-12-06T09:03:10.526Z,64.39772
2022-12-06T09:08:12.214Z,65.44928
2022-12-06T09:13:13.854Z,65.41619
2022-12-06T09:18:15.474Z,64.82976
2022-12-06T09:23:17.061Z,65.64948
2022-12-06T09:28:18.713Z,66.2682
2022-12-06T09:33:20.312Z,66.83719
2022-12-06T09:38:21.947Z,67.02981
2022-12-06T09:43:23.584Z,68.13152
2022-12-06T09:48:25.176Z,68.72707
2022-12-06T09:53:26.769Z,68.46407
2022-12-06T09:58:28.487Z,68.15617
2022-12-06T10:03:30.200Z,69.1898
2022-12-06T10:08:32.079Z,69.32654
2022-12-06T10:13:33.820Z,70.3843
2022-12-06T10:18:35.451Z,70.06394
2022-12-06T10:23:37.067Z,68.89889
2022-12-06T10:28:38.722Z,69.25533
2022-12-06T10:33:40.357Z,69.9538
2022-12-06T10:38:41.986Z,69.71358
2022-12-06T10:43:43.625Z,70.47438
2022-12-06T10:48:45.237Z,70.24547
2022-12-06T10:53:46.864Z,69.36364
2022-12-06T10:58:48.488Z,69.2183
2022-12-06T11:03:50.085Z,69.64072
2022-12-06T11:08:51.731Z,69.66289
2022-12-06T11:13:53.403Z,69.00177
2022-12-06T11:18:55.042Z,69.10677
2022-12-06T11:23:56.694Z,69.66235
2022-12-06T11:28:58.375Z,69.97211
2022-12-06T11:33:59.980Z,70.12114
2022-12-06T11:39:01.648Z,70.77449
2022-12-06T11:44:03.387Z,70.93545
2022-12-06T11:49:05.047Z,70.85064
2022-12-06T11:54:06.783Z,70.93873
2022-12-06T11:59:08.415Z,71.61254
2022-12-06T12:04:10.075Z,71.41391
2022-12-06T12:09:11.712Z,70.1687
2022-12-06T12:14:13.321Z,70.49116
2022-12-06T12:19:14.963Z,69.80078
2022-12-06T12:24:16.610Z,70.29849
2022-12-06T12:29:18.255Z,70.50351
2022-12-06T12:34:19.910Z,70.20281
2022-12-06T12:39:21.557Z,71.18309
2022-12-06T12:44:36.866Z,71.49097
2022-12-06T12:49:39.157Z,70.62883
2022-12-06T12:54:40.999Z,70.77673
2022-12-06T12:59:42.635Z,70.4689
2022-12-06T13:04:44.255Z,70.17329
2022-12-06T13:09:45.869Z,70.95427
2022-12-06T13:14:47.468Z,70.31252
2022-12-06T13:19:53.268Z,69.44729
2022-12-06T13:24:55.106Z,69.69978
2022-12-06T13:29:56.719Z,68.94232
2022-12-06T13:34:59.054Z,68.30793
2022-12-06T13:40:01.191Z,68.98613
2022-12-06T13:45:03.105Z,69.73657
2022-12-06T13:50:05.073Z,70.10822
2022-12-06T13:55:06.837Z,70.88189
2022-12-06T14:00:08.452Z,70.08747
2022-12-06T14:05:10.069Z,70.63045
2022-12-06T14:10:12.144Z,70.53017
2022-12-06T14:15:13.730Z,70.23336
2022-12-06T14:20:15.409Z,68.93816
2022-12-06T14:25:17.045Z,69.51941
2022-12-06T14:30:24.855Z,69.69964
2022-12-06T14:35:27.143Z,69.49718
2022-12-06T14:40:45.390Z,69.8758
2022-12-06T14:45:48.805Z,70.53105
2022-12-06T14:50:50.486Z,69.91351
2022-12-06T14:55:52.077Z,68.68238
2022-12-06T15:00:53.698Z,67.46801
2022-12-06T15:05:55.325Z,66.53825
2022-12-06T15:10:56.981Z,67.88787
2022-12-06T15:15:58.975Z,67.6021
2022-12-06T15:21:00.687Z,68.43037
2022-12-06T15:26:02.275Z,69.95375
2022-12-06T15:31:03.964Z,71.16163
2022-12-06T15:36:05.672Z,69.81926
2022-12-06T15:41:07.290Z,70.72541
2022-12-06T15:46:08.977Z,71.12128
2022-12-06T15:51:12.280Z,70.67132
2022-12-06T15:56:15.586Z,70.01774
2022-12-06T16:01:17.194Z,70.13643
2022-12-06T16:06:18.811Z,69.99694
2022-12-06T16:11:20.625Z,69.58428
2022-12-06T16:16:22.253Z,67.68079
2022-12-06T16:21:23.909Z,67.96083
2022-12-06T16:26:25.503Z,66.99739
2022-12-06T16:31:27.337Z,67.61655
2022-12-06T16:36:29.150Z,69.0392
2022-12-06T16:41:30.797Z,69.10952
2022-12-06T16:46:33.155Z,67.88611
2022-12-06T16:51:34.874Z,66.75037
2022-12-06T16:56:41.388Z,68.65377
2022-12-06T17:01:43.386Z,68.09956
2022-12-06T17:06:46.407Z,68.86479
2022-12-06T17:11:48.013Z,69.43842
2022-12-06T17:16:49.652Z,68.63886
2022-12-06T17:21:51.372Z,69.18526
2022-12-06T17:26:52.973Z,67.4716
2022-12-06T17:31:54.694Z,66.9345
2022-12-06T17:36:56.524Z,67.54687
2022-12-06T17:41:58.173Z,67.16889
2022-12-06T17:46:59.782Z,67.0472
2022-12-06T17:52:01.437Z,65.29201
2022-12-06T17:57:03.057Z,66.47508
2022-12-06T18:02:16.543Z,65.65464
2022-12-06T18:07:19.429Z,64.37503
2022-12-06T18:12:21.066Z,65.41926
2022-12-06T18:17:22.672Z,65.55286
2022-12-06T18:22:24.322Z,65.29973
2022-12-06T18:27:25.989Z,66.02541
2022-12-06T18:32:27.704Z,65.5927
2022-12-06T18:37:29.288Z,63.83462
2022-12-06T18:42:30.916Z,64.60197
2022-12-06T18:47:32.752Z,64.43828
2022-12-06T18:52:34.448Z,64.64263
2022-12-06T18:57:36.655Z,64.34988
2022-12-06T19:02:38.371Z,64.61544
2022-12-06T19:07:40.143Z,63.57141
2022-12-06T19:12:41.880Z,62.8462
2022-12-06T19:17:43.489Z,63.37274
2022-12-06T19:22:45.110Z,63.81333
2022-12-06T19:27:46.698Z,63.38285
2022-12-06T19:32:53.263Z,63.3645
2022-12-06T19:37:54.876Z,62.6991
2022-12-06T19:42:56.484Z,63.77168
2022-12-06T19:47:58.071Z,62.06944
2022-12-06T19:52:59.665Z,62.25705
2022-12-06T19:58:01.287Z,62.10671
2022-12-06T20:03:03.025Z,61.47073
2022-12-06T20:08:04.715Z,62.02202
2022-12-06T20:13:06.388Z,63.80537
2022-12-06T20:18:08.052Z,60.52775
2022-12-06T20:23:10.740Z,60.48381
2022-12-06T20:28:13.832Z,60.07872
2022-12-06T20:33:15.559Z,60.07444
2022-12-06T20:38:17.202Z,58.04704
2022-12-06T20:43:18.833Z,60.97772
2022-12-06T20:48:20.469Z,61.55134
2022-12-06T20:53:22.066Z,60.63865
2022-12-06T20:58:23.672Z,60.83333
2022-12-06T21:03:25.257Z,60.21608
2022-12-06T21:08:26.942Z,61.10176
2022-12-06T21:13:28.543Z,62.138
2022-12-06T21:18:30.255Z,61.1726
2022-12-06T21:23:32.060Z,62.081
2022-12-06T21:28:33.658Z,62.34917
2022-12-06T21:33:35.291Z,62.897
2022-12-06T21:38:37.062Z,61.66363
2022-12-06T21:43:38.668Z,61.15088
2022-12-06T21:48:40.288Z,61.45376
2022-12-06T21:53:41.921Z,61.42588
2022-12-06T21:58:43.571Z,60.57005
2022-12-06T22:03:45.187Z,59.18851
2022-12-06T22:08:46.789Z,61.75797
2022-12-06T22:13:48.586Z,61.2758
2022-12-06T22:18:50.199Z,61.84279
2022-12-06T22:23:51.833Z,61.29728
2022-12-06T22:28:53.677Z,61.73235
2022-12-06T22:33:55.318Z,63.19229
2022-12-06T22:38:56.986Z,61.81159
2022-12-06T22:43:58.610Z,61.96629
2022-12-06T22:49:00.243Z,63.28709
2022-12-06T22:54:01.886Z,62.62086
2022-12-06T22:59:03.527Z,61.9825
2022-12-06T23:04:05.437Z,61.65987
2022-12-06T23:09:07.322Z,62.4267
2022-12-06T23:14:08.979Z,62.55133
2022-12-06T23:19:10.590Z,63.02892
2022-12-06T23:24:12.214Z,61.92833
2022-12-06T23:29:13.806Z,63.47888
2022-12-06T23:34:15.425Z,62.41166
2022-12-06T23:39:17.086Z,62.68678
2022-12-06T23:44:18.723Z,62.47639
2022-12-06T23:49:20.376Z,64.2418
2022-12-06T23:54:22.166Z,62.39717
2022-12-06T23:59:23.795Z,61.49965
